Puvirnituq Airport

Airport
ICAO code: 
CYPX
IATA Code: 
YPX
Summary
ICAO Region: 
NAM
Territory: 
Location: 
Puvirnituq, Quebec,
Serving: 
Puvirnituq
Elevation: 
74 ft
Coordinates: 
Aerial View: 
60° 3' 0.767" N, 77° 17' 12.3" W
Airport RE: 
Landing on Contaminated Runways
Metar
Observation
CYPX 031010Z AUTO 01009KT 9SM -SN OVC026 M10/M12 A2944 RMK SLP975
Station
Povungnituq
Date/Time
2021-12-03 10:10:00
Wind direction
10°
Wind speed
09 kts
Lowest cloud amount
overcast
Temperature
-10°C
Dew point
-12°C
Humidity
85%
Weather condition
light snow

Description

Puvirnituq Airport, is located 1 NM north of Puvirnituq, Quebec, Canada.

Climatology

Subarctic climate (Köppen climate classification Dfc) - long, usually very cold winters, and short, cool to mild summers.

Runways

Designator Length Width Surface Rops
1/19 1528 30 GVL No/No
Airport map: 
Aerial View: 

SKYbrary Partners:

Safety knowledge contributed by: